sensor_id;sensor_type;location;lat;lon;timestamp;temperature;humidity
16825;DHT22;8529;48.108;-1.706;2023-04-15T00:01:25;10.60;99.90
16825;DHT22;8529;48.108;-1.706;2023-04-15T00:03:58;10.60;99.90
16825;DHT22;8529;48.108;-1.706;2023-04-15T00:06:25;10.60;99.90
16825;DHT22;8529;48.108;-1.706;2023-04-15T00:08:52;10.60;99.90
16825;DHT22;8529;48.108;-1.706;2023-04-15T00:11:21;10.50;99.90
16825;DHT22;8529;48.108;-1.706;2023-04-15T00:13:53;10.50;99.90
16825;DHT22;8529;48.108;-1.706;2023-04-15T00:16:23;10.50;99.90
16825;DHT22;8529;48.108;-1.706;2023-04-15T00:18:52;10.40;99.90
16825;DHT22;8529;48.108;-1.706;2023-04-15T00:21:19;10.40;99.90
16825;DHT22;8529;48.108;-1.706;2023-04-15T00:23:46;10.50;99.90
16825;DHT22;8529;48.108;-1.706;2023-04-15T00:26:18;10.50;99.90
16825;DHT22;8529;48.108;-1.706;2023-04-15T00:28:46;10.50;99.90
16825;DHT22;8529;48.108;-1.706;2023-04-15T00:31:17;10.50;99.90
16825;DHT22;8529;48.108;-1.706;2023-04-15T00:33:46;10.50;99.90
16825;DHT22;8529;48.108;-1.706;2023-04-15T00:36:20;10.50;99.90
16825;DHT22;8529;48.108;-1.706;2023-04-15T00:38:53;10.40;99.90
16825;DHT22;8529;48.108;-1.706;2023-04-15T00:41:26;10.50;99.90
16825;DHT22;8529;48.108;-1.706;2023-04-15T00:43:56;10.40;99.90
16825;DHT22;8529;48.108;-1.706;2023-04-15T00:46:27;10.40;99.90
16825;DHT22;8529;48.108;-1.706;2023-04-15T00:49:05;10.40;99.90
16825;DHT22;8529;48.108;-1.706;2023-04-15T00:51:38;10.30;99.90
16825;DHT22;8529;48.108;-1.706;2023-04-15T00:54:05;10.20;99.90
16825;DHT22;8529;48.108;-1.706;2023-04-15T00:56:35;10.20;99.90
16825;DHT22;8529;48.108;-1.706;2023-04-15T00:59:02;10.20;99.90
16825;DHT22;8529;48.108;-1.706;2023-04-15T01:01:33;10.20;99.90
16825;DHT22;8529;48.108;-1.706;2023-04-15T01:04:01;10.10;99.90
16825;DHT22;8529;48.108;-1.706;2023-04-15T01:06:29;10.10;99.90
16825;DHT22;8529;48.108;-1.706;2023-04-15T01:08:57;10.00;99.90
16825;DHT22;8529;48.108;-1.706;2023-04-15T01:11:24;10.00;99.90
16825;DHT22;8529;48.108;-1.706;2023-04-15T01:13:52;10.00;99.90
16825;DHT22;8529;48.108;-1.706;2023-04-15T01:16:21;9.90;99.90
16825;DHT22;8529;48.108;-1.706;2023-04-15T01:18:49;9.90;99.90
16825;DHT22;8529;48.108;-1.706;2023-04-15T01:21:17;9.90;99.90
16825;DHT22;8529;48.108;-1.706;2023-04-15T01:23:46;9.90;99.90
16825;DHT22;8529;48.108;-1.706;2023-04-15T01:26:14;9.90;99.90
16825;DHT22;8529;48.108;-1.706;2023-04-15T01:28:42;9.90;99.90
16825;DHT22;8529;48.108;-1.706;2023-04-15T01:31:11;9.90;99.90
16825;DHT22;8529;48.108;-1.706;2023-04-15T01:33:38;9.90;99.90
16825;DHT22;8529;48.108;-1.706;2023-04-15T01:36:06;9.80;99.90
16825;DHT22;8529;48.108;-1.706;2023-04-15T01:38:35;9.80;99.90
16825;DHT22;8529;48.108;-1.706;2023-04-15T01:41:02;9.80;99.90
16825;DHT22;8529;48.108;-1.706;2023-04-15T01:43:33;9.80;99.90
16825;DHT22;8529;48.108;-1.706;2023-04-15T01:46:00;9.80;99.90
16825;DHT22;8529;48.108;-1.706;2023-04-15T01:48:27;9.80;99.90
16825;DHT22;8529;48.108;-1.706;2023-04-15T01:50:54;9.70;99.90
16825;DHT22;8529;48.108;-1.706;2023-04-15T01:53:22;9.70;99.90
16825;DHT22;8529;48.108;-1.706;2023-04-15T01:55:50;9.60;99.90
16825;DHT22;8529;48.108;-1.706;2023-04-15T01:58:17;9.60;99.90
16825;DHT22;8529;48.108;-1.706;2023-04-15T02:00:46;9.60;99.90
16825;DHT22;8529;48.108;-1.706;2023-04-15T02:03:13;9.60;99.90
16825;DHT22;8529;48.108;-1.706;2023-04-15T02:05:40;9.60;99.90
16825;DHT22;8529;48.108;-1.706;2023-04-15T02:08:07;9.60;99.90
16825;DHT22;8529;48.108;-1.706;2023-04-15T02:10:34;9.60;99.90
16825;DHT22;8529;48.108;-1.706;2023-04-15T02:13:01;9.50;99.90
16825;DHT22;8529;48.108;-1.706;2023-04-15T02:15:28;9.50;99.90
16825;DHT22;8529;48.108;-1.706;2023-04-15T02:17:56;9.50;99.90
16825;DHT22;8529;48.108;-1.706;2023-04-15T02:20:25;9.50;99.90
16825;DHT22;8529;48.108;-1.706;2023-04-15T02:22:52;9.40;99.90
16825;DHT22;8529;48.108;-1.706;2023-04-15T02:25:19;9.40;99.90
16825;DHT22;8529;48.108;-1.706;2023-04-15T02:27:46;9.40;99.90
16825;DHT22;8529;48.108;-1.706;2023-04-15T02:30:12;9.40;99.90
16825;DHT22;8529;48.108;-1.706;2023-04-15T02:32:40;9.40;99.90
16825;DHT22;8529;48.108;-1.706;2023-04-15T02:35:10;9.40;99.90
16825;DHT22;8529;48.108;-1.706;2023-04-15T02:37:37;9.40;99.90
16825;DHT22;8529;48.108;-1.706;2023-04-15T02:40:08;9.30;99.90
16825;DHT22;8529;48.108;-1.706;2023-04-15T02:42:37;9.40;99.90
16825;DHT22;8529;48.108;-1.706;2023-04-15T02:45:05;9.30;99.90
16825;DHT22;8529;48.108;-1.706;2023-04-15T02:47:32;9.30;99.90
16825;DHT22;8529;48.108;-1.706;2023-04-15T02:50:01;9.30;99.90
16825;DHT22;8529;48.108;-1.706;2023-04-15T02:52:29;9.30;99.90
16825;DHT22;8529;48.108;-1.706;2023-04-15T02:54:57;9.20;99.90
16825;DHT22;8529;48.108;-1.706;2023-04-15T02:57:25;9.20;99.90
16825;DHT22;8529;48.108;-1.706;2023-04-15T02:59:53;9.20;99.90
16825;DHT22;8529;48.108;-1.706;2023-04-15T03:02:20;9.20;99.90
16825;DHT22;8529;48.108;-1.706;2023-04-15T03:04:47;9.20;99.90
16825;DHT22;8529;48.108;-1.706;2023-04-15T03:07:14;9.20;99.90
16825;DHT22;8529;48.108;-1.706;2023-04-15T03:09:42;9.20;99.90
16825;DHT22;8529;48.108;-1.706;2023-04-15T03:12:09;9.20;99.90
16825;DHT22;8529;48.108;-1.706;2023-04-15T03:14:36;9.20;99.90
16825;DHT22;8529;48.108;-1.706;2023-04-15T03:17:03;9.10;99.90
16825;DHT22;8529;48.108;-1.706;2023-04-15T03:19:30;9.10;99.90
16825;DHT22;8529;48.108;-1.706;2023-04-15T03:21:57;9.10;99.90
16825;DHT22;8529;48.108;-1.706;2023-04-15T03:24:24;9.10;99.90
16825;DHT22;8529;48.108;-1.706;2023-04-15T03:26:55;9.00;99.90
16825;DHT22;8529;48.108;-1.706;2023-04-15T03:29:22;9.00;99.90
16825;DHT22;8529;48.108;-1.706;2023-04-15T03:31:49;9.00;99.90
16825;DHT22;8529;48.108;-1.706;2023-04-15T03:34:16;9.00;99.90
16825;DHT22;8529;48.108;-1.706;2023-04-15T03:36:43;8.90;99.90
16825;DHT22;8529;48.108;-1.706;2023-04-15T03:39:10;8.90;99.90
16825;DHT22;8529;48.108;-1.706;2023-04-15T03:41:37;8.80;99.90
16825;DHT22;8529;48.108;-1.706;2023-04-15T03:44:05;8.80;99.90
16825;DHT22;8529;48.108;-1.706;2023-04-15T03:46:32;8.80;99.90
16825;DHT22;8529;48.108;-1.706;2023-04-15T03:48:59;8.90;99.90
16825;DHT22;8529;48.108;-1.706;2023-04-15T03:51:26;8.90;99.90
16825;DHT22;8529;48.108;-1.706;2023-04-15T03:53:53;8.90;99.90
16825;DHT22;8529;48.108;-1.706;2023-04-15T03:56:20;8.90;99.90
16825;DHT22;8529;48.108;-1.706;2023-04-15T03:58:47;8.90;99.90
16825;DHT22;8529;48.108;-1.706;2023-04-15T04:01:15;8.90;99.90
16825;DHT22;8529;48.108;-1.706;2023-04-15T04:03:43;8.80;99.90
16825;DHT22;8529;48.108;-1.706;2023-04-15T04:06:09;8.80;99.90
16825;DHT22;8529;48.108;-1.706;2023-04-15T04:08:37;8.80;99.90
16825;DHT22;8529;48.108;-1.706;2023-04-15T04:11:04;8.70;99.90
16825;DHT22;8529;48.108;-1.706;2023-04-15T04:13:31;8.60;99.90
16825;DHT22;8529;48.108;-1.706;2023-04-15T04:15:58;8.60;99.90
16825;DHT22;8529;48.108;-1.706;2023-04-15T04:18:26;8.60;99.90
16825;DHT22;8529;48.108;-1.706;2023-04-15T04:20:53;8.50;99.90
16825;DHT22;8529;48.108;-1.706;2023-04-15T04:23:20;8.50;99.90
16825;DHT22;8529;48.108;-1.706;2023-04-15T04:25:47;8.50;99.90
16825;DHT22;8529;48.108;-1.706;2023-04-15T04:28:14;8.50;99.90
16825;DHT22;8529;48.108;-1.706;2023-04-15T04:30:41;8.50;99.90
16825;DHT22;8529;48.108;-1.706;2023-04-15T04:33:08;8.40;99.90
16825;DHT22;8529;48.108;-1.706;2023-04-15T04:35:36;8.40;99.90
16825;DHT22;8529;48.108;-1.706;2023-04-15T04:38:03;8.40;99.90
16825;DHT22;8529;48.108;-1.706;2023-04-15T04:40:30;8.40;99.90
16825;DHT22;8529;48.108;-1.706;2023-04-15T04:42:57;8.40;99.90
16825;DHT22;8529;48.108;-1.706;2023-04-15T04:45:23;8.40;99.90
16825;DHT22;8529;48.108;-1.706;2023-04-15T04:47:50;8.40;99.90
16825;DHT22;8529;48.108;-1.706;2023-04-15T04:50:17;8.40;99.90
16825;DHT22;8529;48.108;-1.706;2023-04-15T04:52:45;8.40;99.90
16825;DHT22;8529;48.108;-1.706;2023-04-15T04:55:12;8.40;99.90
16825;DHT22;8529;48.108;-1.706;2023-04-15T04:57:39;8.40;99.90
16825;DHT22;8529;48.108;-1.706;2023-04-15T05:00:07;8.40;99.90
16825;DHT22;8529;48.108;-1.706;2023-04-15T05:02:34;8.40;99.90
16825;DHT22;8529;48.108;-1.706;2023-04-15T05:05:01;8.40;99.90
16825;DHT22;8529;48.108;-1.706;2023-04-15T05:07:28;8.40;99.90
16825;DHT22;8529;48.108;-1.706;2023-04-15T05:09:57;8.30;99.90
16825;DHT22;8529;48.108;-1.706;2023-04-15T05:12:23;8.30;99.90
16825;DHT22;8529;48.108;-1.706;2023-04-15T05:14:50;8.30;99.90
16825;DHT22;8529;48.108;-1.706;2023-04-15T05:17:17;8.30;99.90
16825;DHT22;8529;48.108;-1.706;2023-04-15T05:19:44;8.40;99.90
16825;DHT22;8529;48.108;-1.706;2023-04-15T05:22:11;8.40;99.90
16825;DHT22;8529;48.108;-1.706;2023-04-15T05:24:38;8.50;99.90
16825;DHT22;8529;48.108;-1.706;2023-04-15T05:27:06;8.50;99.90
16825;DHT22;8529;48.108;-1.706;2023-04-15T05:29:35;8.50;99.90
16825;DHT22;8529;48.108;-1.706;2023-04-15T05:32:01;8.60;99.90
16825;DHT22;8529;48.108;-1.706;2023-04-15T05:34:28;8.60;99.90
16825;DHT22;8529;48.108;-1.706;2023-04-15T05:36:55;8.60;99.90
16825;DHT22;8529;48.108;-1.706;2023-04-15T05:39:22;8.60;99.90
16825;DHT22;8529;48.108;-1.706;2023-04-15T05:41:49;8.60;99.90
16825;DHT22;8529;48.108;-1.706;2023-04-15T05:44:18;8.60;99.90
16825;DHT22;8529;48.108;-1.706;2023-04-15T05:46:44;8.70;99.90
16825;DHT22;8529;48.108;-1.706;2023-04-15T05:49:11;8.70;99.90
16825;DHT22;8529;48.108;-1.706;2023-04-15T05:51:38;8.70;99.90
16825;DHT22;8529;48.108;-1.706;2023-04-15T05:54:05;8.70;99.90
16825;DHT22;8529;48.108;-1.706;2023-04-15T05:56:32;8.80;99.90
16825;DHT22;8529;48.108;-1.706;2023-04-15T05:58:59;8.80;99.90
16825;DHT22;8529;48.108;-1.706;2023-04-15T06:01:28;8.80;99.90
16825;DHT22;8529;48.108;-1.706;2023-04-15T06:03:55;8.90;99.90
16825;DHT22;8529;48.108;-1.706;2023-04-15T06:06:21;8.90;99.90
16825;DHT22;8529;48.108;-1.706;2023-04-15T06:08:48;8.90;99.90
16825;DHT22;8529;48.108;-1.706;2023-04-15T06:11:16;8.90;99.90
16825;DHT22;8529;48.108;-1.706;2023-04-15T06:13:42;8.90;99.90
16825;DHT22;8529;48.108;-1.706;2023-04-15T06:16:09;8.90;99.90
16825;DHT22;8529;48.108;-1.706;2023-04-15T06:18:37;9.00;99.90
16825;DHT22;8529;48.108;-1.706;2023-04-15T06:21:05;9.10;99.90
16825;DHT22;8529;48.108;-1.706;2023-04-15T06:23:34;9.10;99.90
16825;DHT22;8529;48.108;-1.706;2023-04-15T06:26:01;9.10;99.90
16825;DHT22;8529;48.108;-1.706;2023-04-15T06:28:28;9.20;99.90
16825;DHT22;8529;48.108;-1.706;2023-04-15T06:30:55;9.20;99.90
16825;DHT22;8529;48.108;-1.706;2023-04-15T06:33:22;9.20;99.90
16825;DHT22;8529;48.108;-1.706;2023-04-15T06:35:50;9.30;99.90
16825;DHT22;8529;48.108;-1.706;2023-04-15T06:38:17;9.30;99.90
16825;DHT22;8529;48.108;-1.706;2023-04-15T06:40:44;9.30;99.90
16825;DHT22;8529;48.108;-1.706;2023-04-15T06:43:11;9.40;99.90
16825;DHT22;8529;48.108;-1.706;2023-04-15T06:45:38;9.40;99.90
16825;DHT22;8529;48.108;-1.706;2023-04-15T06:48:05;9.40;99.90
16825;DHT22;8529;48.108;-1.706;2023-04-15T06:50:32;9.40;99.90
16825;DHT22;8529;48.108;-1.706;2023-04-15T06:53:01;9.50;99.90
16825;DHT22;8529;48.108;-1.706;2023-04-15T06:55:28;9.50;99.90
16825;DHT22;8529;48.108;-1.706;2023-04-15T06:57:56;9.50;99.90
16825;DHT22;8529;48.108;-1.706;2023-04-15T07:00:22;9.50;99.90
16825;DHT22;8529;48.108;-1.706;2023-04-15T07:02:50;9.60;99.90
16825;DHT22;8529;48.108;-1.706;2023-04-15T07:05:17;9.60;99.90
16825;DHT22;8529;48.108;-1.706;2023-04-15T07:07:44;9.70;99.90
16825;DHT22;8529;48.108;-1.706;2023-04-15T07:10:12;9.70;99.90
16825;DHT22;8529;48.108;-1.706;2023-04-15T07:12:40;9.80;99.90
16825;DHT22;8529;48.108;-1.706;2023-04-15T07:15:07;9.80;99.90
16825;DHT22;8529;48.108;-1.706;2023-04-15T07:17:34;9.80;99.90
16825;DHT22;8529;48.108;-1.706;2023-04-15T07:20:01;9.80;99.90
16825;DHT22;8529;48.108;-1.706;2023-04-15T07:22:29;9.90;99.90
16825;DHT22;8529;48.108;-1.706;2023-04-15T07:24:56;9.90;99.90
16825;DHT22;8529;48.108;-1.706;2023-04-15T07:27:24;10.00;99.90
16825;DHT22;8529;48.108;-1.706;2023-04-15T07:29:51;10.00;99.90
16825;DHT22;8529;48.108;-1.706;2023-04-15T07:32:18;10.00;99.90
16825;DHT22;8529;48.108;-1.706;2023-04-15T07:34:45;10.10;99.90
16825;DHT22;8529;48.108;-1.706;2023-04-15T07:37:12;10.20;99.90
16825;DHT22;8529;48.108;-1.706;2023-04-15T07:39:39;10.20;99.90
16825;DHT22;8529;48.108;-1.706;2023-04-15T07:42:06;10.20;99.90
16825;DHT22;8529;48.108;-1.706;2023-04-15T07:44:34;10.30;99.90
16825;DHT22;8529;48.108;-1.706;2023-04-15T07:47:02;10.30;99.90
16825;DHT22;8529;48.108;-1.706;2023-04-15T07:49:29;10.40;99.90
16825;DHT22;8529;48.108;-1.706;2023-04-15T07:51:56;10.50;99.90
16825;DHT22;8529;48.108;-1.706;2023-04-15T07:54:24;10.50;99.90
16825;DHT22;8529;48.108;-1.706;2023-04-15T07:56:51;10.60;99.90
16825;DHT22;8529;48.108;-1.706;2023-04-15T07:59:18;10.60;99.90
16825;DHT22;8529;48.108;-1.706;2023-04-15T08:01:47;10.60;99.90
16825;DHT22;8529;48.108;-1.706;2023-04-15T08:04:14;10.70;99.90
16825;DHT22;8529;48.108;-1.706;2023-04-15T08:06:41;10.70;99.90
16825;DHT22;8529;48.108;-1.706;2023-04-15T08:09:08;10.70;99.90
16825;DHT22;8529;48.108;-1.706;2023-04-15T08:11:36;10.70;99.90
16825;DHT22;8529;48.108;-1.706;2023-04-15T08:14:02;10.80;99.90
16825;DHT22;8529;48.108;-1.706;2023-04-15T08:16:29;10.80;99.90
16825;DHT22;8529;48.108;-1.706;2023-04-15T08:18:58;10.80;99.90
16825;DHT22;8529;48.108;-1.706;2023-04-15T08:21:25;10.90;99.90
16825;DHT22;8529;48.108;-1.706;2023-04-15T08:23:52;11.00;99.90
16825;DHT22;8529;48.108;-1.706;2023-04-15T08:26:20;11.00;99.90
16825;DHT22;8529;48.108;-1.706;2023-04-15T08:28:47;11.10;99.90
16825;DHT22;8529;48.108;-1.706;2023-04-15T08:31:15;11.10;99.90
16825;DHT22;8529;48.108;-1.706;2023-04-15T08:33:43;11.20;99.90
16825;DHT22;8529;48.108;-1.706;2023-04-15T08:36:11;11.30;99.90
16825;DHT22;8529;48.108;-1.706;2023-04-15T08:38:39;11.20;99.90
16825;DHT22;8529;48.108;-1.706;2023-04-15T08:41:11;11.30;99.90
16825;DHT22;8529;48.108;-1.706;2023-04-15T08:43:44;11.30;99.90
16825;DHT22;8529;48.108;-1.706;2023-04-15T08:46:13;11.30;99.90
16825;DHT22;8529;48.108;-1.706;2023-04-15T08:48:41;11.30;99.90
16825;DHT22;8529;48.108;-1.706;2023-04-15T08:51:08;11.30;99.90
16825;DHT22;8529;48.108;-1.706;2023-04-15T08:53:37;11.40;99.90
16825;DHT22;8529;48.108;-1.706;2023-04-15T08:56:06;11.40;99.90
16825;DHT22;8529;48.108;-1.706;2023-04-15T08:58:35;11.30;99.90
16825;DHT22;8529;48.108;-1.706;2023-04-15T09:01:02;11.40;99.90
16825;DHT22;8529;48.108;-1.706;2023-04-15T09:03:29;11.40;99.90
16825;DHT22;8529;48.108;-1.706;2023-04-15T09:05:56;11.60;99.90
16825;DHT22;8529;48.108;-1.706;2023-04-15T09:08:23;11.70;99.90
16825;DHT22;8529;48.108;-1.706;2023-04-15T09:10:52;11.80;99.90
16825;DHT22;8529;48.108;-1.706;2023-04-15T09:13:19;12.10;99.90
16825;DHT22;8529;48.108;-1.706;2023-04-15T09:15:46;12.20;99.90
16825;DHT22;8529;48.108;-1.706;2023-04-15T09:18:26;12.40;99.90
16825;DHT22;8529;48.108;-1.706;2023-04-15T09:20:54;12.50;99.90
16825;DHT22;8529;48.108;-1.706;2023-04-15T09:23:21;12.50;99.90
16825;DHT22;8529;48.108;-1.706;2023-04-15T09:25:48;12.30;99.90
16825;DHT22;8529;48.108;-1.706;2023-04-15T09:28:23;12.20;99.90
16825;DHT22;8529;48.108;-1.706;2023-04-15T09:30:51;12.10;99.90
16825;DHT22;8529;48.108;-1.706;2023-04-15T09:33:20;11.90;99.90
16825;DHT22;8529;48.108;-1.706;2023-04-15T09:35:56;11.90;99.90
16825;DHT22;8529;48.108;-1.706;2023-04-15T09:38:23;12.20;99.90
16825;DHT22;8529;48.108;-1.706;2023-04-15T09:40:50;12.20;99.90
16825;DHT22;8529;48.108;-1.706;2023-04-15T09:43:19;12.50;99.90
16825;DHT22;8529;48.108;-1.706;2023-04-15T09:45:50;12.60;99.90
16825;DHT22;8529;48.108;-1.706;2023-04-15T09:48:18;13.00;99.90
16825;DHT22;8529;48.108;-1.706;2023-04-15T09:50:46;13.30;99.90
16825;DHT22;8529;48.108;-1.706;2023-04-15T09:53:18;13.60;99.90
16825;DHT22;8529;48.108;-1.706;2023-04-15T09:55:48;13.80;99.90
16825;DHT22;8529;48.108;-1.706;2023-04-15T09:58:21;14.00;99.90
16825;DHT22;8529;48.108;-1.706;2023-04-15T10:00:49;14.00;99.90
16825;DHT22;8529;48.108;-1.706;2023-04-15T10:03:18;13.80;99.90
16825;DHT22;8529;48.108;-1.706;2023-04-15T10:05:47;13.90;99.90
16825;DHT22;8529;48.108;-1.706;2023-04-15T10:08:17;13.80;99.90
16825;DHT22;8529;48.108;-1.706;2023-04-15T10:10:45;13.90;99.90
16825;DHT22;8529;48.108;-1.706;2023-04-15T10:13:13;13.90;99.90
16825;DHT22;8529;48.108;-1.706;2023-04-15T10:15:44;13.90;99.90
16825;DHT22;8529;48.108;-1.706;2023-04-15T10:18:15;13.90;99.90
16825;DHT22;8529;48.108;-1.706;2023-04-15T10:20:43;13.90;99.90
16825;DHT22;8529;48.108;-1.706;2023-04-15T10:23:11;13.90;99.90
16825;DHT22;8529;48.108;-1.706;2023-04-15T10:25:38;13.90;99.90
16825;DHT22;8529;48.108;-1.706;2023-04-15T10:28:06;13.90;99.90
16825;DHT22;8529;48.108;-1.706;2023-04-15T10:30:34;13.90;99.90
16825;DHT22;8529;48.108;-1.706;2023-04-15T10:33:03;13.80;99.90
16825;DHT22;8529;48.108;-1.706;2023-04-15T10:35:31;13.80;99.90
16825;DHT22;8529;48.108;-1.706;2023-04-15T10:37:59;13.70;99.90
16825;DHT22;8529;48.108;-1.706;2023-04-15T10:40:27;13.50;99.90
16825;DHT22;8529;48.108;-1.706;2023-04-15T10:42:57;13.50;99.90
16825;DHT22;8529;48.108;-1.706;2023-04-15T10:45:30;13.60;99.90
16825;DHT22;8529;48.108;-1.706;2023-04-15T10:48:00;13.70;99.90
16825;DHT22;8529;48.108;-1.706;2023-04-15T10:50:30;13.80;99.90
16825;DHT22;8529;48.108;-1.706;2023-04-15T10:52:58;13.70;99.90
16825;DHT22;8529;48.108;-1.706;2023-04-15T10:55:26;13.60;99.90
16825;DHT22;8529;48.108;-1.706;2023-04-15T10:57:54;13.40;99.90
16825;DHT22;8529;48.108;-1.706;2023-04-15T11:00:24;13.30;99.90
16825;DHT22;8529;48.108;-1.706;2023-04-15T11:02:53;13.40;99.90
16825;DHT22;8529;48.108;-1.706;2023-04-15T11:05:22;13.60;99.90
16825;DHT22;8529;48.108;-1.706;2023-04-15T11:08:10;13.80;99.90
16825;DHT22;8529;48.108;-1.706;2023-04-15T11:10:55;14.00;99.90
16825;DHT22;8529;48.108;-1.706;2023-04-15T11:13:26;14.10;99.90
16825;DHT22;8529;48.108;-1.706;2023-04-15T11:16:01;14.10;99.90
16825;DHT22;8529;48.108;-1.706;2023-04-15T11:18:30;14.10;99.90
16825;DHT22;8529;48.108;-1.706;2023-04-15T11:20:58;14.00;99.90
16825;DHT22;8529;48.108;-1.706;2023-04-15T11:23:32;14.00;99.90
16825;DHT22;8529;48.108;-1.706;2023-04-15T11:26:00;13.90;99.90
16825;DHT22;8529;48.108;-1.706;2023-04-15T11:28:31;13.80;99.90
16825;DHT22;8529;48.108;-1.706;2023-04-15T11:31:04;13.80;99.90
16825;DHT22;8529;48.108;-1.706;2023-04-15T11:33:31;13.70;99.90
16825;DHT22;8529;48.108;-1.706;2023-04-15T11:35:58;13.50;99.90
16825;DHT22;8529;48.108;-1.706;2023-04-15T11:38:25;13.60;99.90
16825;DHT22;8529;48.108;-1.706;2023-04-15T11:40:53;13.70;99.90
16825;DHT22;8529;48.108;-1.706;2023-04-15T11:43:22;13.80;99.90
16825;DHT22;8529;48.108;-1.706;2023-04-15T11:45:51;14.00;99.90
16825;DHT22;8529;48.108;-1.706;2023-04-15T11:48:21;14.10;99.90
16825;DHT22;8529;48.108;-1.706;2023-04-15T11:50:52;14.10;99.90
16825;DHT22;8529;48.108;-1.706;2023-04-15T11:53:20;14.20;99.90
16825;DHT22;8529;48.108;-1.706;2023-04-15T11:55:48;14.30;99.90
16825;DHT22;8529;48.108;-1.706;2023-04-15T11:58:18;14.40;99.90
16825;DHT22;8529;48.108;-1.706;2023-04-15T12:00:46;14.40;99.90
16825;DHT22;8529;48.108;-1.706;2023-04-15T12:03:20;14.30;99.90
16825;DHT22;8529;48.108;-1.706;2023-04-15T12:06:10;14.30;99.90
16825;DHT22;8529;48.108;-1.706;2023-04-15T12:09:00;14.20;99.90
16825;DHT22;8529;48.108;-1.706;2023-04-15T12:11:32;14.20;99.90
16825;DHT22;8529;48.108;-1.706;2023-04-15T12:14:03;14.20;99.90
16825;DHT22;8529;48.108;-1.706;2023-04-15T12:16:32;14.20;99.90
16825;DHT22;8529;48.108;-1.706;2023-04-15T12:19:02;14.20;99.90
16825;DHT22;8529;48.108;-1.706;2023-04-15T12:21:33;14.30;99.90
16825;DHT22;8529;48.108;-1.706;2023-04-15T12:24:02;14.30;99.90
16825;DHT22;8529;48.108;-1.706;2023-04-15T12:26:33;14.30;99.90
16825;DHT22;8529;48.108;-1.706;2023-04-15T12:29:01;14.20;99.90
16825;DHT22;8529;48.108;-1.706;2023-04-15T12:31:29;14.20;99.90
16825;DHT22;8529;48.108;-1.706;2023-04-15T12:33:57;14.20;99.90
16825;DHT22;8529;48.108;-1.706;2023-04-15T12:36:25;14.20;99.90
16825;DHT22;8529;48.108;-1.706;2023-04-15T12:38:53;14.30;99.90
16825;DHT22;8529;48.108;-1.706;2023-04-15T12:41:20;14.20;99.90
16825;DHT22;8529;48.108;-1.706;2023-04-15T12:43:48;14.20;99.90
16825;DHT22;8529;48.108;-1.706;2023-04-15T12:46:17;14.30;99.90
16825;DHT22;8529;48.108;-1.706;2023-04-15T12:48:44;14.30;99.90
16825;DHT22;8529;48.108;-1.706;2023-04-15T12:51:12;14.40;99.90
16825;DHT22;8529;48.108;-1.706;2023-04-15T12:53:39;14.30;99.90
16825;DHT22;8529;48.108;-1.706;2023-04-15T12:56:06;14.20;99.90
16825;DHT22;8529;48.108;-1.706;2023-04-15T12:58:33;14.30;99.90
16825;DHT22;8529;48.108;-1.706;2023-04-15T13:01:00;14.30;99.90
16825;DHT22;8529;48.108;-1.706;2023-04-15T13:03:29;14.30;99.90
16825;DHT22;8529;48.108;-1.706;2023-04-15T13:05:56;14.30;99.90
16825;DHT22;8529;48.108;-1.706;2023-04-15T13:08:23;14.30;99.90
16825;DHT22;8529;48.108;-1.706;2023-04-15T13:10:50;14.30;99.90
16825;DHT22;8529;48.108;-1.706;2023-04-15T13:13:17;14.20;99.90
16825;DHT22;8529;48.108;-1.706;2023-04-15T13:15:44;14.20;99.90
16825;DHT22;8529;48.108;-1.706;2023-04-15T13:18:11;14.20;99.90
16825;DHT22;8529;48.108;-1.706;2023-04-15T13:20:39;14.20;99.90
16825;DHT22;8529;48.108;-1.706;2023-04-15T13:23:06;14.20;99.90
16825;DHT22;8529;48.108;-1.706;2023-04-15T13:25:33;14.20;99.90
16825;DHT22;8529;48.108;-1.706;2023-04-15T13:28:00;14.20;99.90
16825;DHT22;8529;48.108;-1.706;2023-04-15T13:30:27;14.20;99.90
16825;DHT22;8529;48.108;-1.706;2023-04-15T13:32:54;14.30;99.90
16825;DHT22;8529;48.108;-1.706;2023-04-15T13:35:21;14.30;99.90
16825;DHT22;8529;48.108;-1.706;2023-04-15T13:37:49;14.30;99.90
16825;DHT22;8529;48.108;-1.706;2023-04-15T13:40:16;14.40;99.90
16825;DHT22;8529;48.108;-1.706;2023-04-15T13:42:43;14.40;99.90
16825;DHT22;8529;48.108;-1.706;2023-04-15T13:45:10;14.40;99.90
16825;DHT22;8529;48.108;-1.706;2023-04-15T13:47:37;14.40;99.90
16825;DHT22;8529;48.108;-1.706;2023-04-15T13:50:05;14.50;99.90
16825;DHT22;8529;48.108;-1.706;2023-04-15T13:52:32;14.50;99.90
16825;DHT22;8529;48.108;-1.706;2023-04-15T13:55:00;14.40;99.90
16825;DHT22;8529;48.108;-1.706;2023-04-15T13:57:27;14.40;99.90
16825;DHT22;8529;48.108;-1.706;2023-04-15T13:59:54;14.40;99.90
16825;DHT22;8529;48.108;-1.706;2023-04-15T14:02:21;14.40;99.90
16825;DHT22;8529;48.108;-1.706;2023-04-15T14:04:48;14.40;99.90
16825;DHT22;8529;48.108;-1.706;2023-04-15T14:07:15;14.30;99.90
16825;DHT22;8529;48.108;-1.706;2023-04-15T14:09:42;14.30;99.90
16825;DHT22;8529;48.108;-1.706;2023-04-15T14:12:11;14.30;99.90
16825;DHT22;8529;48.108;-1.706;2023-04-15T14:14:38;14.40;99.90
16825;DHT22;8529;48.108;-1.706;2023-04-15T14:17:05;14.40;99.90
16825;DHT22;8529;48.108;-1.706;2023-04-15T14:19:32;14.40;99.90
16825;DHT22;8529;48.108;-1.706;2023-04-15T14:21:59;14.30;99.90
16825;DHT22;8529;48.108;-1.706;2023-04-15T14:24:26;14.30;99.90
16825;DHT22;8529;48.108;-1.706;2023-04-15T14:26:53;14.40;99.90
16825;DHT22;8529;48.108;-1.706;2023-04-15T14:29:22;14.30;99.90
16825;DHT22;8529;48.108;-1.706;2023-04-15T14:31:49;14.30;99.90
16825;DHT22;8529;48.108;-1.706;2023-04-15T14:34:16;14.30;99.90
16825;DHT22;8529;48.108;-1.706;2023-04-15T14:36:43;14.30;99.90
16825;DHT22;8529;48.108;-1.706;2023-04-15T14:39:10;14.30;99.90
16825;DHT22;8529;48.108;-1.706;2023-04-15T14:41:37;14.30;99.90
16825;DHT22;8529;48.108;-1.706;2023-04-15T14:44:04;14.20;99.60
16825;DHT22;8529;48.108;-1.706;2023-04-15T14:46:35;14.20;99.90
16825;DHT22;8529;48.108;-1.706;2023-04-15T14:49:01;14.10;99.90
16825;DHT22;8529;48.108;-1.706;2023-04-15T14:51:28;14.10;99.90
16825;DHT22;8529;48.108;-1.706;2023-04-15T14:53:55;14.10;99.90
16825;DHT22;8529;48.108;-1.706;2023-04-15T14:56:22;14.10;99.90
16825;DHT22;8529;48.108;-1.706;2023-04-15T14:58:49;14.10;99.90
16825;DHT22;8529;48.108;-1.706;2023-04-15T15:01:17;14.10;99.90
16825;DHT22;8529;48.108;-1.706;2023-04-15T15:03:46;14.20;99.90
16825;DHT22;8529;48.108;-1.706;2023-04-15T15:06:15;14.20;99.90
16825;DHT22;8529;48.108;-1.706;2023-04-15T15:08:42;14.20;99.90
16825;DHT22;8529;48.108;-1.706;2023-04-15T15:11:08;14.10;99.90
16825;DHT22;8529;48.108;-1.706;2023-04-15T15:13:35;14.10;99.90
16825;DHT22;8529;48.108;-1.706;2023-04-15T15:16:02;14.00;99.90
16825;DHT22;8529;48.108;-1.706;2023-04-15T15:18:29;14.00;99.90
16825;DHT22;8529;48.108;-1.706;2023-04-15T15:20:58;14.00;99.90
16825;DHT22;8529;48.108;-1.706;2023-04-15T15:23:25;14.00;99.90
16825;DHT22;8529;48.108;-1.706;2023-04-15T15:25:51;14.10;99.90
16825;DHT22;8529;48.108;-1.706;2023-04-15T15:28:19;14.10;99.90
16825;DHT22;8529;48.108;-1.706;2023-04-15T15:30:46;14.00;99.90
16825;DHT22;8529;48.108;-1.706;2023-04-15T15:33:13;14.00;99.90
16825;DHT22;8529;48.108;-1.706;2023-04-15T15:35:40;13.90;99.90
16825;DHT22;8529;48.108;-1.706;2023-04-15T15:38:10;13.90;99.90
16825;DHT22;8529;48.108;-1.706;2023-04-15T15:40:37;13.90;99.90
16825;DHT22;8529;48.108;-1.706;2023-04-15T15:43:04;13.90;99.80